Data for 04/30/2015

Time Sea-Level Adjusted Pressure Absolute Pressure Temperature Relative Humidity Dew Point   
(mb) (inHg) (mb) (inHg) (C) (F) (%) (C) (F)
00:05 1018 30.06 847 25.01 10.1 50.2 76 6.2 43.1
00:10 1018 30.06 847 25.01 10 50.1 77 6.2 43.1
00:15 1018 30.06 847 25.01 10 50 76 5.9 42.7
00:20 1018 30.06 847 25.01 9.9 49.9 76 5.9 42.6
00:25 1018 30.06 847 25.01 9.9 49.8 75 5.8 42.4
00:30 1018 30.06 847 25.01 9.9 49.8 75 5.7 42.3
00:35 1018 30.06 847 25.01 9.8 49.7 73 5.2 41.4
00:40 1018 30.06 847 25.01 9.8 49.7 72 5 41
00:45 1018 30.06 847 25.01 9.8 49.7 69 4.4 39.9
00:50 1018 30.06 848 25.04 9.8 49.7 64 3.3 38
00:55 1018 30.06 848 25.04 9.5 49.1 63 2.8 37.1
01:00 1018 30.06 848 25.04 9.2 48.6 64 2.7 36.9
01:05 1018 30.06 848 25.04 9 48.3 65 2.9 37.2
01:10 1018 30.06 848 25.04 9 48.1 67 3.1 37.6
01:15 1018 30.06 848 25.04 8.9 48 67 3.1 37.6
01:20 1018 30.06 848 25.04 8.9 48.1 63 2.3 36.2
01:25 1018 30.06 848 25.04 9 48.1 56 0.8 33.4
01:30 1018 30.06 847 25.01 9.1 48.4 53 -0 31.9
01:35 1018 30.06 847 25.01 9.2 48.5 51 -0.5 31.1
01:40 1018 30.06 848 25.04 9.1 48.4 54 0.2 32.4
01:45 1018 30.06 848 25.04 8.9 48 56 0.7 33.2
01:50 1019 30.09 848 25.04 8.7 47.6 60 1.4 34.5
01:55 1019 30.09 848 25.04 8.5 47.3 64 2 35.6
02:00 1019 30.09 848 25.04 8.1 46.6 67 2.4 36.4
02:05 1019 30.09 848 25.04 7.7 45.8 69 2.4 36.4
02:10 1019 30.09 849 25.07 7.3 45.2 72 2.5 36.6
02:15 1020 30.12 849 25.07 7.1 44.7 72 2.3 36.2
02:20 1020 30.12 849 25.07 6.9 44.4 70 1.9 35.4
02:25 1020 30.12 849 25.07 6.8 44.3 71 2 35.6
02:30 1020 30.12 849 25.07 6.8 44.2 66 0.9 33.6
02:35 1020 30.12 849 25.07 6.7 44.1 65 0.7 33.3
02:40 1020 30.12 849 25.07 6.8 44.3 60 -0.3 31.5
02:45 1020 30.12 849 25.07 7 44.6 63 0.5 32.8
02:50 1020 30.12 849 25.07 6.9 44.4 64 0.6 33
02:55 1020 30.12 849 25.07 6.8 44.2 66 0.9 33.5
03:00 1020 30.12 849 25.07 6.7 44.1 69 1.4 34.6
03:05 1020 30.12 849 25.07 6.7 44.1 71 1.8 35.2
03:10 1020 30.12 849 25.07 6.4 43.5 74 2.1 35.7
03:15 1020 30.12 849 25.07 6.2 43.1 69 0.9 33.6
03:20 1020 30.12 849 25.07 6 42.8 68 0.6 33
03:25 1020 30.12 850 25.1 6.1 42.9 72 1.4 34.4
03:30 1020 30.12 850 25.1 5.9 42.6 70 0.9 33.6
03:35 1020 30.12 850 25.1 5.9 42.6 71 1 33.8
03:40 1020 30.12 850 25.1 5.9 42.7 66 0.1 32.2
03:45 1021 30.15 850 25.1 6.1 42.9 69 0.8 33.5
03:50 1021 30.15 850 25.1 5.9 42.6 74 1.5 34.8
03:55 1021 30.15 850 25.1 5.4 41.7 78 1.9 35.4
04:00 1021 30.15 850 25.1 5 41 80 1.8 35.2
04:05 1021 30.15 850 25.1 4.7 40.4 81 1.6 34.9
04:10 1021 30.15 850 25.1 4.5 40.2 81 1.6 34.9
04:15 1021 30.15 850 25.1 4.5 40.1 80 1.3 34.4
04:20 1021 30.15 850 25.1 4.4 40 81 1.5 34.7
04:25 1021 30.15 850 25.1 4.3 39.7 81 1.3 34.4
04:30 1021 30.15 850 25.1 4.2 39.6 81 1.3 34.3
04:35 1021 30.15 850 25.1 4.3 39.7 81 1.3 34.3
04:40 1021 30.15 850 25.1 4.3 39.8 78 0.9 33.6
04:45 1021 30.15 850 25.1 4.4 40 79 1.1 33.9
04:50 1021 30.15 850 25.1 4.4 40 79 1.1 34
04:55 1021 30.15 850 25.1 4.5 40.1 79 1.2 34.2
05:00 1021 30.15 850 25.1 4.5 40.1 79 1.2 34.1
05:05 1021 30.15 850 25.1 4.6 40.2 80 1.5 34.6
05:10 1021 30.15 850 25.1 4.6 40.3 81 1.6 34.9
05:15 1021 30.15 850 25.1 4.7 40.4 80 1.6 34.9
05:20 1021 30.15 850 25.1 4.7 40.4 79 1.4 34.5
05:25 1021 30.15 850 25.1 4.7 40.5 79 1.3 34.3
05:30 1021 30.15 850 25.1 4.8 40.6 79 1.4 34.6
05:35 1021 30.15 850 25.1 4.9 40.8 77 1.2 34.2
05:40 1021 30.15 850 25.1 5 41 77 1.3 34.4
05:45 1021 30.15 850 25.1 4.9 40.8 78 1.3 34.4
05:50 1021 30.15 850 25.1 4.7 40.5 79 1.4 34.6
05:55 1021 30.15 850 25.1 4.8 40.6 80 1.6 34.8
06:00 1021 30.15 850 25.1 4.9 40.8 77 1.3 34.3
06:05 1021 30.15 850 25.1 5 40.9 76 1.1 34
06:10 1021 30.15 850 25.1 5 40.9 76 1 33.8
06:15 1021 30.15 850 25.1 5.1 41.2 77 1.4 34.5
06:20 1021 30.15 851 25.13 5.3 41.6 76 1.4 34.5
06:25 1021 30.15 851 25.13 5.5 41.8 76 1.5 34.7
06:30 1021 30.15 851 25.13 5.3 41.6 76 1.4 34.5
06:35 1021 30.15 851 25.13 5.4 41.6 75 1.3 34.4
06:40 1021 30.15 851 25.13 5.4 41.7 75 1.4 34.4
06:45 1022 30.18 851 25.13 5.4 41.7 75 1.3 34.4
06:50 1022 30.18 851 25.13 5.4 41.7 75 1.4 34.5
06:55 1022 30.18 851 25.13 5.7 42.3 75 1.7 35
07:00 1022 30.18 851 25.13 6.1 42.9 72 1.4 34.5
07:05 1022 30.18 851 25.13 6.2 43.2 72 1.5 34.8
07:10 1022 30.18 851 25.13 6.2 43.2 71 1.5 34.6
07:15 1022 30.18 851 25.13 6.2 43.2 73 1.7 35
07:20 1022 30.18 851 25.13 6.2 43.2 73 1.7 35.1
07:25 1022 30.18 851 25.13 5.9 42.6 73 1.4 34.6
07:30 1022 30.18 851 25.13 5.9 42.6 73 1.4 34.5
07:35 1022 30.18 851 25.13 6 42.8 71 1.2 34.1
07:40 1022 30.18 851 25.13 6.1 43 67 0.6 33
07:45 1022 30.18 852 25.16 6.3 43.3 69 1 33.9
07:50 1022 30.18 852 25.16 6.7 44.1 67 1.1 34.1
07:55 1023 30.21 852 25.16 7.7 45.8 61 0.6 33
08:00 1023 30.21 852 25.16 8.3 47 61 1.3 34.3
08:05 1023 30.21 852 25.16 8.7 47.6 56 0.4 32.8
08:10 1023 30.21 852 25.16 8.7 47.7 54 0 32
08:15 1023 30.21 852 25.16 8.7 47.7 54 0.1 32.2
08:20 1023 30.21 852 25.16 9 48.1 50 -0.9 30.5
08:25 1023 30.21 852 25.16 9.3 48.8 55 0.8 33.4
08:30 1023 30.21 852 25.16 9 48.2 54 0.1 32.3
08:35 1023 30.21 852 25.16 8.7 47.7 49 -1.4 29.5
08:40 1023 30.21 852 25.16 8.5 47.3 48 -2 28.5
08:45 1023 30.21 852 25.16 9.3 48.7 45 -1.9 28.6
08:50 1023 30.21 852 25.16 9.7 49.4 42 -2.5 27.5
08:55 1023 30.21 852 25.16 10 50 39 -3.4 25.8
09:00 1023 30.21 852 25.16 9.8 49.6 43 -2.2 28
09:05 1023 30.21 852 25.16 10.1 50.1 40 -2.8 27
09:10 1023 30.21 852 25.16 9.7 49.4 41 -2.8 27
09:15 1023 30.21 852 25.16 9.9 49.7 39 -3.5 25.7
09:20 1023 30.21 852 25.16 10.4 50.7 37 -3.7 25.3
09:25 1023 30.21 852 25.16 10.5 50.9 38 -3.4 26
09:30 1023 30.21 852 25.16 11 51.8 35 -3.8 25.1
09:35 1023 30.21 852 25.16 10.9 51.6 35 -4 24.7
09:40 1023 30.21 852 25.16 10.8 51.4 36 -3.8 25.2
09:45 1023 30.21 852 25.16 10 50 38 -3.5 25.8
09:50 1023 30.21 852 25.16 10.5 50.9 38 -3.2 26.3
09:55 1023 30.21 852 25.16 11.2 52.1 37 -3.1 26.4
10:00 1023 30.21 852 25.16 11.1 52 36 -3.4 26
10:05 1023 30.21 852 25.16 11.4 52.5 35 -3.6 25.5
10:10 1023 30.21 852 25.16 11.8 53.3 32 -4.2 24.4
10:15 1023 30.21 852 25.16 10.6 51.2 35 -4.1 24.7
10:20 1023 30.21 852 25.16 10.5 50.9 35 -4.3 24.3
10:25 1023 30.21 852 25.16 11.2 52.1 32 -4.8 23.4
10:30 1023 30.21 852 25.16 10.4 50.6 33 -5.2 22.7
10:35 1023 30.21 852 25.16 10.4 50.8 34 -4.8 23.4
10:40 1023 30.21 852 25.16 10.3 50.6 33 -5.4 22.3
10:45 1023 30.21 852 25.16 11.4 52.4 32 -4.7 23.5
10:50 1023 30.21 852 25.16 10.6 51 32 -5.5 22.2
10:55 1023 30.21 852 25.16 11.6 52.9 31 -5.1 22.9
11:00 1023 30.21 852 25.16 12.2 54 30 -4.8 23.4
11:05 1023 30.21 852 25.16 12.2 54 31 -4.3 24.2
11:10 1023 30.21 852 25.16 11.9 53.5 31 -4.7 23.6
11:15 1023 30.21 852 25.16 11.7 53.1 32 -4.4 24.1
11:20 1023 30.21 852 25.16 11.2 52.2 32 -4.7 23.6
11:25 1023 30.21 852 25.16 11.6 52.9 32 -4.3 24.2
11:30 1023 30.21 852 25.16 11.9 53.4 30 -4.9 23.1
11:35 1022 30.18 852 25.16 12.4 54.4 31 -4.2 24.4
11:40 1022 30.18 852 25.16 12.9 55.2 30 -4.3 24.3
11:45 1022 30.18 852 25.16 13.6 56.4 29 -4.3 24.3
11:50 1022 30.18 852 25.16 12.9 55.2 31 -3.9 25.1
11:55 1022 30.18 852 25.16 13.3 56 29 -4.1 24.6
12:00 1022 30.18 852 25.16 13.2 55.8 31 -3.4 25.9
12:05 1022 30.18 851 25.13 12.5 54.4 31 -4.1 24.7
12:10 1022 30.18 851 25.13 13 55.5 29 -4.6 23.7
12:15 1022 30.18 851 25.13 13.3 55.9 31 -3.6 25.5
12:20 1022 30.18 851 25.13 12.9 55.1 31 -3.6 25.5
12:25 1022 30.18 851 25.13 13 55.3 32 -3.4 25.8
12:30 1022 30.18 851 25.13 13.2 55.8 31 -3.4 25.8
12:35 1022 30.18 851 25.13 13.3 55.9 31 -3.4 26
12:40 1022 30.18 851 25.13 14.1 57.4 29 -3.4 25.9
12:45 1022 30.18 851 25.13 14.2 57.6 31 -2.7 27.2
12:50 1022 30.18 851 25.13 13.8 56.9 29 -3.8 25.2
12:55 1022 30.18 851 25.13 13.7 56.7 31 -3.2 26.2
13:00 1022 30.18 851 25.13 13.4 56 30 -3.8 25.1
13:05 1022 30.18 851 25.13 12.8 55.1 33 -3.2 26.3
13:10 1022 30.18 851 25.13 12.1 53.7 33 -3.6 25.5
13:15 1022 30.18 851 25.13 12.8 55.1 29 -4.7 23.5
13:20 1022 30.18 851 25.13 14.2 57.6 28 -3.9 24.9
13:25 1022 30.18 851 25.13 14.4 58 29 -3.5 25.7
13:30 1022 30.18 851 25.13 15.2 59.4 27 -3.4 25.8
13:35 1022 30.18 851 25.13 13.8 56.9 31 -3.2 26.3
13:40 1022 30.18 851 25.13 14.1 57.3 29 -3.7 25.3
13:45 1021 30.15 851 25.13 13.5 56.4 30 -3.6 25.4
13:50 1021 30.15 851 25.13 14.2 57.5 28 -3.9 25
13:55 1021 30.15 851 25.13 14.8 58.6 29 -3.1 26.4
14:00 1021 30.15 851 25.13 15.2 59.3 27 -3.6 25.6
14:05 1021 30.15 850 25.1 14.8 58.6 27 -3.7 25.3
14:10 1021 30.15 850 25.1 15.3 59.6 28 -3 26.6
14:15 1021 30.15 850 25.1 16 60.8 25 -3.7 25.3
14:20 1021 30.15 850 25.1 15.8 60.5 26 -3.6 25.6
14:25 1021 30.15 850 25.1 15.7 60.2 27 -3.3 26
14:30 1021 30.15 850 25.1 15.8 60.4 27 -3 26.6
14:35 1021 30.15 850 25.1 15.6 60 27 -3.2 26.2
14:40 1021 30.15 850 25.1 15.6 60.1 25 -4.2 24.5
14:45 1021 30.15 850 25.1 15.4 59.7 25 -4.3 24.3
14:50 1021 30.15 850 25.1 14.1 57.4 28 -3.9 24.9
14:55 1021 30.15 850 25.1 14.7 58.4 27 -4.2 24.4
15:00 1021 30.15 850 25.1 15.5 60 25 -4.3 24.2
15:05 1021 30.15 850 25.1 15.8 60.4 25 -4.2 24.4
15:10 1021 30.15 850 25.1 16.3 61.4 24 -4.1 24.7
15:15 1021 30.15 850 25.1 16.4 61.5 24 -4.3 24.3
15:20 1021 30.15 850 25.1 16.7 62.1 25 -3.6 25.6
15:25 1021 30.15 850 25.1 16.7 62.1 23 -4.4 24.1
15:30 1021 30.15 850 25.1 16.2 61.1 24 -4.2 24.5
15:35 1021 30.15 850 25.1 15.6 60 25 -4.4 24.1
15:40 1020 30.12 850 25.1 15.6 60 24 -4.8 23.4
15:45 1020 30.12 850 25.1 16.3 61.3 25 -3.9 25
15:50 1020 30.12 850 25.1 16.3 61.4 24 -4.3 24.2
15:55 1020 30.12 850 25.1 16.8 62.3 22 -5.1 22.8
16:00 1020 30.12 850 25.1 16.1 61 23 -5.2 22.7
16:05 1020 30.12 849 25.07 16.4 61.5 22 -5.3 22.5
16:10 1020 30.12 849 25.07 17 62.6 22 -4.5 23.9
16:15 1020 30.12 849 25.07 16.8 62.3 22 -4.9 23.2
16:20 1020 30.12 849 25.07 16.7 62.1 23 -4.6 23.6
16:25 1020 30.12 849 25.07 16.6 61.8 22 -5.2 22.7
16:30 1020 30.12 849 25.07 16.4 61.6 22 -5.3 22.4
16:35 1020 30.12 849 25.07 16.6 61.9 21 -5.4 22.3
16:40 1020 30.12 849 25.07 17 62.5 20 -5.9 21.4
16:45 1020 30.12 849 25.07 16.9 62.3 20 -6.1 21
16:50 1020 30.12 849 25.07 16.8 62.2 20 -6.4 20.4
16:55 1020 30.12 849 25.07 16.3 61.3 21 -5.9 21.4
17:00 1020 30.12 849 25.07 15.8 60.5 21 -6.5 20.4
17:05 1020 30.12 849 25.07 15.3 59.5 21 -7.1 19.3
17:10 1020 30.12 849 25.07 15.2 59.4 21 -6.9 19.5
17:15 1020 30.12 849 25.07 15.5 59.9 20 -7.1 19.3
17:20 1020 30.12 849 25.07 15.3 59.6 20 -7.5 18.5
17:25 1020 30.12 849 25.07 14.9 58.8 20 -8.1 17.4
17:30 1020 30.12 849 25.07 14.5 58.2 21 -7.8 18
17:35 1020 30.12 849 25.07 14.6 58.3 20 -8 17.5
17:40 1020 30.12 849 25.07 14.6 58.3 21 -7.6 18.3
17:45 1020 30.12 849 25.07 14.9 58.8 21 -7.2 19
17:50 1020 30.12 849 25.07 15 59 21 -7.3 18.8
17:55 1020 30.12 849 25.07 15 59.1 21 -7.2 19
18:00 1020 30.12 849 25.07 15.1 59.2 22 -6.4 20.6
18:05 1020 30.12 849 25.07 15.2 59.4 21 -7 19.3
18:10 1020 30.12 849 25.07 15.2 59.3 21 -7.1 19.3
18:15 1020 30.12 849 25.07 15.1 59.1 21 -7.3 18.8
18:20 1020 30.12 849 25.07 15 59.1 20 -7.4 18.7
18:25 1019 30.09 849 25.07 14.8 58.7 21 -7.3 18.9
18:30 1019 30.09 849 25.07 14.5 58.2 21 -7.6 18.3
18:35 1019 30.09 849 25.07 14.3 57.8 25 -5.4 22.3
18:40 1019 30.09 849 25.07 14.4 57.9 21 -7.5 18.5
18:45 1019 30.09 849 25.07 14.3 57.7 21 -7.6 18.3
18:50 1019 30.09 849 25.07 14.1 57.4 22 -7.4 18.7
18:55 1019 30.09 849 25.07 14 57.2 21 -7.6 18.3
19:00 1019 30.09 849 25.07 13.9 57 22 -7.4 18.7
19:05 1019 30.09 849 25.07 13.8 56.9 22 -7.3 18.8
19:10 1019 30.09 849 25.07 13.7 56.7 23 -6.7 19.9
19:15 1019 30.09 849 25.07 13.6 56.5 23 -6.9 19.7
19:20 1019 30.09 849 25.07 13.6 56.4 23 -6.9 19.6
19:25 1019 30.09 849 25.07 13.5 56.3 24 -6.7 19.9
19:30 1019 30.09 849 25.07 13.4 56.1 25 -6.3 20.7
19:35 1019 30.09 849 25.07 13.2 55.8 25 -6.4 20.5
19:40 1019 30.09 849 25.07 12.9 55.3 31 -3.7 25.3
19:45 1020 30.12 849 25.07 12.5 54.4 33 -3.2 26.2
19:50 1020 30.12 849 25.07 11.9 53.5 39 -1.6 29.2
19:55 1020 30.12 849 25.07 11.3 52.4 41 -1.4 29.5
20:00 1020 30.12 849 25.07 10.9 51.6 43 -1.3 29.7
20:05 1020 30.12 849 25.07 10.7 51.2 44 -1.2 29.9
20:10 1020 30.12 849 25.07 10.4 50.8 44 -1.2 29.9
20:15 1020 30.12 849 25.07 10.2 50.4 45 -1.1 30.1
20:20 1020 30.12 849 25.07 10 49.9 47 -0.8 30.5
20:25 1020 30.12 849 25.07 9.5 49 50 -0.5 31
20:30 1020 30.12 849 25.07 9 48.2 50 -0.9 30.3
20:35 1020 30.12 849 25.07 8.7 47.7 50 -1.2 29.9
20:40 1020 30.12 849 25.07 8.8 47.8 48 -1.5 29.3
20:45 1020 30.12 849 25.07 8.9 47.9 47 -1.7 29
20:50 1020 30.12 849 25.07 9 48.3 46 -1.8 28.7
20:55 1020 30.12 849 25.07 9 48.2 48 -1.2 29.8
21:00 1020 30.12 849 25.07 8.8 47.8 51 -0.7 30.8
21:05 1020 30.12 849 25.07 8.6 47.5 51 -0.9 30.4
21:10 1020 30.12 849 25.07 8.4 47.1 51 -1 30.2
21:15 1020 30.12 850 25.1 8 46.5 51 -1.4 29.5
21:20 1020 30.12 850 25.1 7.8 46 51 -1.6 29.2
21:25 1020 30.12 850 25.1 7.7 45.9 52 -1.5 29.3
21:30 1020 30.12 850 25.1 7.8 46 52 -1.5 29.3
21:35 1020 30.12 850 25.1 7.9 46.2 51 -1.6 29.1
21:40 1020 30.12 850 25.1 7.7 45.9 52 -1.5 29.3
21:45 1020 30.12 850 25.1 7.7 45.8 51 -1.9 28.6
21:50 1020 30.12 850 25.1 7.9 46.2 47 -2.6 27.3
21:55 1020 30.12 850 25.1 8.2 46.8 44 -3.2 26.3
22:00 1020 30.12 850 25.1 8.4 47.2 45 -2.8 27
22:05 1020 30.12 850 25.1 8.4 47.2 43 -3.4 25.8
22:10 1020 30.12 850 25.1 8.7 47.7 40 -4.2 24.4
22:15 1020 30.12 850 25.1 9.1 48.3 38 -4.5 23.8
22:20 1020 30.12 850 25.1 9.1 48.4 38 -4.5 23.9
22:25 1020 30.12 850 25.1 9.3 48.7 35 -5.4 22.4
22:30 1020 30.12 850 25.1 9.7 49.5 34 -5.4 22.2
22:35 1020 30.12 850 25.1 9.7 49.4 33 -5.7 21.8
22:40 1020 30.12 850 25.1 9.7 49.5 33 -5.6 21.8
22:45 1021 30.15 850 25.1 9.4 48.9 37 -4.6 23.7
22:50 1021 30.15 850 25.1 8.8 47.8 36 -5.5 22.1
22:55 1021 30.15 850 25.1 9.4 48.9 33 -6.2 20.9
23:00 1021 30.15 850 25.1 9.7 49.5 33 -5.8 21.5
23:05 1021 30.15 850 25.1 9.5 49 34 -5.5 22.1
23:10 1021 30.15 850 25.1 9.3 48.7 34 -5.7 21.7
23:15 1021 30.15 850 25.1 9.1 48.5 35 -5.3 22.4
23:20 1021 30.15 850 25.1 8.7 47.7 39 -4.3 24.2
23:25 1021 30.15 850 25.1 7.9 46.3 42 -4.3 24.2
23:30 1021 30.15 850 25.1 7.6 45.7 41 -4.8 23.3
23:35 1021 30.15 850 25.1 7.8 46.1 38 -5.5 22.1
23:40 1021 30.15 850 25.1 8 46.5 40 -4.7 23.5
23:45 1021 30.15 850 25.1 7.8 46 39 -5.4 22.3
23:50 1021 30.15 850 25.1 7.7 45.9 41 -4.8 23.3
23:55 1021 30.15 850 25.1 7.7 45.8 40 -5.1 22.8
24:00 1021 30.15 850 25.1 7.5 45.4 42 -4.7 23.6